Time;durP1;ratioP1;P1;durP2;ratioP2;P2;SDS_P1;SDS_P2;PMS_P1;PMS_P2;Temp;Humidity;BMP_temperature;BMP_pressure;BME280_temperature;BME280_humidity;BME280_pressure;Samples;Min_cycle;Max_cycle;Signal;HPM_P1;HPM_P2
2022/11/20 02:07:02;;;;;;;1.90;1.42;;;;;;;1.61;55.28;99450.00;4949280;29;20061;-80
2022/11/20 02:09:28;;;;;;;2.40;1.50;;;;;;;1.64;55.42;99444.75;4952591;28;20055;-81
2022/11/20 02:11:56;;;;;;;2.90;1.67;;;;;;;1.64;55.39;99446.50;4952493;28;20118;-82
2022/11/20 02:14:23;;;;;;;2.25;1.58;;;;;;;1.63;55.05;99440.47;4952627;28;20083;-82
2022/11/20 02:16:50;;;;;;;2.45;1.70;;;;;;;1.63;54.82;99435.25;4952023;28;20543;-81
2022/11/20 02:19:27;;;;;;;3.25;1.90;;;;;;;1.62;54.61;99432.72;4935389;29;20063;-82
2022/11/20 02:22:04;;;;;;;2.25;1.80;;;;;;;1.62;54.60;99437.91;4952746;29;20063;-81
2022/11/20 02:24:31;;;;;;;1.58;1.48;;;;;;;1.64;55.08;99425.75;4935427;29;20718;-82
2022/11/20 02:27:04;;;;;;;2.47;1.77;;;;;;;1.62;54.37;99419.75;4952308;29;20083;-82
2022/11/20 02:29:33;;;;;;;2.88;1.92;;;;;;;1.61;54.83;99418.88;4952512;29;20059;-82
2022/11/20 02:32:01;;;;;;;3.17;2.13;;;;;;;1.63;55.40;99416.25;4952346;28;20058;-81
2022/11/20 02:34:28;;;;;;;2.53;1.83;;;;;;;1.61;54.95;99418.03;4952373;28;20110;-82
2022/11/20 02:36:57;;;;;;;2.53;1.90;;;;;;;1.59;55.56;99423.25;4952355;28;20055;-81
2022/11/20 02:39:26;;;;;;;3.05;1.88;;;;;;;1.60;55.05;99429.31;4952148;28;20052;-82
2022/11/20 02:41:54;;;;;;;2.88;2.05;;;;;;;1.60;55.19;99437.09;4952224;28;20063;-80
2022/11/20 02:44:20;;;;;;;2.38;1.73;;;;;;;1.59;54.95;99435.38;4935074;29;20102;-82
2022/11/20 02:46:47;;;;;;;3.05;1.83;;;;;;;1.57;54.66;99440.59;4952636;28;20117;-81
2022/11/20 02:49:13;;;;;;;2.75;2.08;;;;;;;1.54;55.06;99436.34;4955985;28;20048;-81
2022/11/20 02:51:39;;;;;;;3.63;2.40;;;;;;;1.50;54.90;99429.50;4955853;28;20053;-80
2022/11/20 02:54:06;;;;;;;4.65;2.67;;;;;;;1.49;54.76;99424.41;4957708;28;20051;-81
2022/11/20 02:56:32;;;;;;;2.95;2.05;;;;;;;1.48;54.97;99425.25;4963551;28;20480;-86
2022/11/20 02:58:59;;;;;;;4.45;2.58;;;;;;;1.47;54.95;99431.34;4955727;28;20059;-82
2022/11/20 03:01:25;;;;;;;4.10;2.50;;;;;;;1.47;54.97;99421.84;4956065;28;20555;-80
2022/11/20 03:03:54;;;;;;;3.05;2.20;;;;;;;1.47;55.01;99426.16;4962110;28;20079;-80
2022/11/20 03:06:20;;;;;;;4.88;2.45;;;;;;;1.45;55.29;99426.19;4955146;28;20118;-80
2022/11/20 03:08:47;;;;;;;3.03;2.40;;;;;;;1.45;55.18;99427.97;4955352;28;20063;-80
2022/11/20 03:11:13;;;;;;;2.55;2.05;;;;;;;1.44;55.29;99429.69;4954159;28;20063;-82
2022/11/20 03:13:40;;;;;;;3.72;2.20;;;;;;;1.42;54.96;99427.13;4955589;28;20114;-81
2022/11/20 03:16:18;;;;;;;3.05;2.30;;;;;;;1.37;54.34;99418.63;4955592;28;20123;-80
2022/11/20 03:18:45;;;;;;;3.72;2.80;;;;;;;1.38;55.19;99425.50;4954123;28;20102;-82
2022/11/20 03:21:13;;;;;;;3.95;2.60;;;;;;;1.36;54.83;99416.06;4955531;28;20061;-80
2022/11/20 03:23:40;;;;;;;3.88;2.53;;;;;;;1.33;54.85;99408.34;4955190;28;20082;-82
2022/11/20 03:26:17;;;;;;;4.70;3.00;;;;;;;1.28;54.98;99413.66;4955305;28;20055;-80
2022/11/20 03:28:49;;;;;;;4.03;2.85;;;;;;;1.26;54.97;99418.88;4955253;28;20102;-80
2022/11/20 03:31:18;;;;;;;5.65;2.90;;;;;;;1.26;55.18;99412.81;4938300;29;20051;-80
2022/11/20 03:33:45;;;;;;;4.03;2.72;;;;;;;1.25;55.58;99414.59;4955594;28;20051;-82
2022/11/20 03:36:14;;;;;;;4.63;2.63;;;;;;;1.23;54.68;99411.16;4955261;28;20188;-80
2022/11/20 03:38:41;;;;;;;4.88;3.15;;;;;;;1.23;55.51;99410.31;4937888;29;20051;-82
2022/11/20 03:41:13;;;;;;;3.78;2.83;;;;;;;1.22;55.07;99408.59;4955287;28;20083;-81
2022/11/20 03:43:40;;;;;;;4.20;2.65;;;;;;;1.21;54.79;99401.72;4955509;29;20617;-80
2022/11/20 03:46:07;;;;;;;4.00;2.95;;;;;;;1.19;54.68;99391.38;4955002;29;20514;-80
2022/11/20 03:48:34;;;;;;;3.70;2.72;;;;;;;1.17;55.18;99400.94;4954782;28;20389;-80
2022/11/20 03:51:12;;;;;;;5.05;3.38;;;;;;;1.12;54.03;99395.03;4954804;28;20492;-80
2022/11/20 03:53:40;;;;;;;6.43;3.05;;;;;;;1.13;54.54;99400.16;4955042;28;20106;-80
2022/11/20 03:56:08;;;;;;;5.00;3.58;;;;;;;1.09;54.83;99382.13;4955000;28;20055;-80
2022/11/20 03:58:37;;;;;;;5.20;3.35;;;;;;;1.06;54.57;99383.06;4953157;28;20063;-82
2022/11/20 04:01:12;;;;;;;6.18;3.40;;;;;;;1.02;54.25;99381.44;4954889;29;20062;-81
2022/11/20 04:03:40;;;;;;;5.28;3.42;;;;;;;1.02;55.16;99376.25;4953274;29;20063;-83
2022/11/20 04:06:13;;;;;;;6.00;3.97;;;;;;;1.01;54.50;99379.72;4954844;28;20066;-81
2022/11/20 04:08:40;;;;;;;7.63;4.38;;;;;;;1.02;54.95;99377.06;4954716;28;20428;-80
2022/11/20 04:11:18;;;;;;;8.40;4.75;;;;;;;0.98;54.66;99378.06;4954908;28;20047;-83
2022/11/20 04:13:53;;;;;;;6.55;4.53;;;;;;;0.97;54.52;99380.69;4969157;28;20059;-83
2022/11/20 04:16:20;;;;;;;6.15;4.10;;;;;;;0.96;54.71;99382.41;4954442;28;20063;-81
2022/11/20 04:18:50;;;;;;;6.55;4.35;;;;;;;0.94;55.05;99375.56;4954436;29;20070;-82
2022/11/20 04:21:17;;;;;;;6.55;4.35;;;;;;;0.92;54.52;99375.59;4954324;28;20110;-84
2022/11/20 04:23:43;;;;;;;8.65;5.43;;;;;;;0.90;55.24;99378.22;4954416;28;20059;-80
2022/11/20 04:26:11;;;;;;;8.05;5.45;;;;;;;0.89;55.51;99375.66;4936990;29;20401;-80
2022/11/20 04:28:38;;;;;;;5.97;4.60;;;;;;;0.87;54.89;99373.13;4954054;28;20082;-80
2022/11/20 04:31:11;;;;;;;7.00;4.97;;;;;;;0.86;54.70;99376.59;4954357;28;20055;-80
2022/11/20 04:33:37;;;;;;;8.40;4.82;;;;;;;0.87;55.44;99373.13;4954575;29;20055;-80
2022/11/20 04:36:15;;;;;;;8.82;5.18;;;;;;;0.86;54.88;99386.97;4953916;29;20067;-82
2022/11/20 04:38:42;;;;;;;6.55;4.88;;;;;;;0.90;55.33;99374.81;4953693;29;20055;-80
2022/11/20 04:41:17;;;;;;;7.53;4.82;;;;;;;0.87;54.64;99380.03;4953740;28;20055;-80
2022/11/20 04:43:51;;;;;;;8.13;5.28;;;;;;;0.86;54.81;99392.13;4952502;28;20059;-83
2022/11/20 04:46:20;;;;;;;7.47;5.38;;;;;;;0.85;54.98;99379.22;4942320;29;20052;-81
2022/11/20 04:48:47;;;;;;;8.23;5.25;;;;;;;0.82;55.00;99381.91;4943361;28;20095;-83
2022/11/20 04:51:14;;;;;;;9.05;5.85;;;;;;;0.78;55.26;99379.38;4934039;29;20700;-81
2022/11/20 04:53:41;;;;;;;8.75;5.38;;;;;;;0.75;55.21;99381.19;4934707;29;20051;-82
2022/11/20 04:56:10;;;;;;;7.90;5.15;;;;;;;0.72;55.12;99381.25;4948822;28;20488;-80
2022/11/20 04:58:36;;;;;;;8.05;5.43;;;;;;;0.70;55.44;99376.09;4934459;29;20087;-80
2022/11/20 05:01:05;;;;;;;8.63;5.00;;;;;;;0.68;55.45;99385.66;4934297;29;20059;-82
2022/11/20 05:03:32;;;;;;;10.80;5.63;;;;;;;0.68;55.41;99377.03;4934542;29;20063;-80
2022/11/20 05:06:04;;;;;;;6.75;4.93;;;;;;;0.64;55.41;99371.91;4934774;29;20056;-81
2022/11/20 05:08:32;;;;;;;10.55;6.13;;;;;;;0.66;54.91;99373.63;4934167;29;20070;-81
2022/11/20 05:11:07;;;;;;;7.65;5.57;;;;;;;0.62;55.05;99368.50;4935763;29;20081;-81
2022/11/20 05:13:34;;;;;;;10.32;5.47;;;;;;;0.63;55.40;99366.75;4953690;28;20055;-81
2022/11/20 05:16:06;;;;;;;10.60;5.95;;;;;;;0.62;55.39;99363.31;4953435;28;20142;-81
2022/11/20 05:18:34;;;;;;;8.23;5.47;;;;;;;0.60;55.12;99359.91;4953104;29;20059;-80
2022/11/20 05:21:01;;;;;;;7.63;5.00;;;;;;;0.59;55.05;99352.16;4953349;28;20047;-81
2022/11/20 05:23:29;;;;;;;7.45;4.80;;;;;;;0.57;55.34;99349.63;4953378;28;20578;-80
2022/11/20 05:25:57;;;;;;;8.93;5.30;;;;;;;0.56;55.55;99350.50;4936056;29;20106;-85
2022/11/20 05:28:25;;;;;;;8.13;5.55;;;;;;;0.56;55.42;99354.84;4953414;28;20134;-81
2022/11/20 05:30:52;;;;;;;8.07;5.38;;;;;;;0.55;55.88;99350.56;4953351;28;20063;-81
2022/11/20 05:33:19;;;;;;;9.90;5.60;;;;;;;0.55;55.24;99345.38;4953035;28;20133;-82
2022/11/20 05:35:45;;;;;;;7.75;5.22;;;;;;;0.55;55.54;99345.38;4957174;28;20119;-81
2022/11/20 05:38:12;;;;;;;9.35;5.53;;;;;;;0.53;55.48;99348.00;4975246;28;20055;-81
2022/11/20 05:40:39;;;;;;;7.15;5.15;;;;;;;0.53;55.96;99345.41;4972290;28;20125;-81
2022/11/20 05:43:05;;;;;;;8.18;5.38;;;;;;;0.52;55.73;99347.13;4972386;28;20077;-81
2022/11/20 05:45:32;;;;;;;7.70;4.90;;;;;;;0.52;55.41;99346.25;4972407;28;20062;-82
2022/11/20 05:48:02;;;;;;;9.00;5.00;;;;;;;0.51;55.74;99344.56;4972234;28;20069;-81
2022/11/20 05:50:29;;;;;;;8.82;5.35;;;;;;;0.52;55.61;99341.09;4972625;28;20054;-81
2022/11/20 05:52:59;;;;;;;9.82;5.68;;;;;;;0.52;55.36;99341.94;4970905;28;20051;-82
2022/11/20 05:55:26;;;;;;;7.07;5.20;;;;;;;0.51;55.45;99339.38;4970632;28;20503;-80
2022/11/20 05:57:54;;;;;;;10.35;6.10;;;;;;;0.49;55.52;99349.78;4982561;28;20495;-81
2022/11/20 06:00:22;;;;;;;10.43;5.85;;;;;;;0.47;55.87;99343.78;4974194;28;20054;-81
2022/11/20 06:02:48;;;;;;;9.35;6.05;;;;;;;0.46;55.95;99341.25;4991457;28;20137;-82
2022/11/20 06:05:15;;;;;;;9.00;6.13;;;;;;;0.42;55.62;99339.59;4991251;28;20062;-81
2022/11/20 06:07:42;;;;;;;10.00;6.50;;;;;;;0.41;56.04;99337.91;4990089;28;20054;-80
2022/11/20 06:10:09;;;;;;;9.43;5.82;;;;;;;0.37;55.86;99331.91;4990098;28;20054;-82
2022/11/20 06:12:36;;;;;;;8.98;5.72;;;;;;;0.37;55.46;99337.97;4989879;28;20495;-80
2022/11/20 06:15:04;;;;;;;10.23;6.10;;;;;;;0.35;55.93;99336.28;4991123;28;20499;-83
2022/11/20 06:17:30;;;;;;;9.00;5.88;;;;;;;0.33;55.72;99341.50;4970994;28;20066;-81
2022/11/20 06:19:57;;;;;;;8.80;5.18;;;;;;;0.32;56.13;99339.81;4971057;28;20146;-82
2022/11/20 06:22:23;;;;;;;9.45;5.53;;;;;;;0.31;56.14;99332.94;4972946;28;20705;-83
2022/11/20 06:24:50;;;;;;;10.68;6.38;;;;;;;0.31;56.29;99339.84;4975244;28;20138;-81
2022/11/20 06:27:16;;;;;;;9.40;6.53;;;;;;;0.29;55.26;99339.84;4973615;28;20058;-82
2022/11/20 06:29:43;;;;;;;9.25;6.03;;;;;;;0.26;55.66;99339.91;4958019;28;20050;-82
2022/11/20 06:32:09;;;;;;;10.50;6.18;;;;;;;0.24;56.04;99337.38;4984219;28;20053;-83
2022/11/20 06:34:36;;;;;;;9.60;5.88;;;;;;;0.23;55.91;99346.00;4950367;28;20059;-82
2022/11/20 06:37:03;;;;;;;7.65;5.53;;;;;;;0.22;56.15;99346.06;4972474;28;20059;-84
2022/11/20 06:39:29;;;;;;;8.20;5.63;;;;;;;0.21;55.93;99344.34;4973112;28;20090;-82
2022/11/20 06:41:57;;;;;;;9.50;5.40;;;;;;;0.22;55.85;99351.25;4955015;29;20063;-82
2022/11/20 06:44:25;;;;;;;12.20;6.90;;;;;;;0.21;55.84;99352.97;4966658;28;20066;-82
2022/11/20 06:46:52;;;;;;;10.20;6.70;;;;;;;0.19;55.61;99356.47;4974413;28;20133;-82
2022/11/20 06:49:18;;;;;;;11.57;7.28;;;;;;;0.14;56.01;99358.31;4974063;28;20090;-83
2022/11/20 06:51:45;;;;;;;12.00;7.90;;;;;;;0.10;55.80;99358.38;4975126;28;20050;-82
2022/11/20 06:54:12;;;;;;;10.43;7.00;;;;;;;0.07;56.31;99355.84;4975171;28;20086;-83
2022/11/20 06:56:39;;;;;;;11.85;7.60;;;;;;;0.04;56.31;99361.06;4957541;28;20161;-82
2022/11/20 06:59:06;;;;;;;11.02;7.25;;;;;;;0.01;56.34;99368.91;4975061;28;20055;-82
2022/11/20 07:01:33;;;;;;;11.80;7.65;;;;;;;-0.01;56.13;99357.72;4975127;28;20423;-82
2022/11/20 07:04:00;;;;;;;11.32;8.07;;;;;;;-0.03;56.13;99362.09;4975122;28;20142;-82
2022/11/20 07:06:26;;;;;;;11.13;6.90;;;;;;;-0.04;56.64;99362.97;4974773;28;20057;-82
2022/11/20 07:08:53;;;;;;;13.50;7.93;;;;;;;-0.06;56.37;99362.16;4974460;28;20467;-82
2022/11/20 07:11:19;;;;;;;10.45;7.53;;;;;;;-0.08;56.75;99361.34;4957596;28;20086;-82
2022/11/20 07:13:46;;;;;;;10.95;7.63;;;;;;;-0.11;56.08;99354.47;4974924;28;20055;-83
2022/11/20 07:16:13;;;;;;;12.52;8.13;;;;;;;-0.16;56.61;99359.75;4974670;28;20545;-83
2022/11/20 07:18:39;;;;;;;14.57;8.77;;;;;;;-0.20;56.80;99358.09;4957513;28;20061;-82
2022/11/20 07:21:09;;;;;;;14.38;8.00;;;;;;;-0.23;56.94;99352.13;4960775;28;20089;-83
2022/11/20 07:23:36;;;;;;;14.43;8.93;;;;;;;-0.25;57.09;99349.56;4974337;28;20499;-83
2022/11/20 07:26:05;;;;;;;15.80;8.90;;;;;;;-0.26;57.51;99350.47;4974420;28;20419;-83
2022/11/20 07:28:32;;;;;;;17.70;9.73;;;;;;;-0.27;57.58;99356.50;4974229;28;20135;-83
2022/11/20 07:30:59;;;;;;;17.35;9.95;;;;;;;-0.28;57.18;99347.91;4967184;28;20062;-83
2022/11/20 07:33:25;;;;;;;15.60;10.23;;;;;;;-0.26;58.03;99345.28;4956487;28;20141;-82
2022/11/20 07:35:52;;;;;;;17.88;10.13;;;;;;;-0.24;57.64;99353.84;4974089;28;20059;-82
2022/11/20 07:38:19;;;;;;;22.20;10.88;;;;;;;-0.23;58.22;99345.22;4956660;28;20066;-81
2022/11/20 07:40:46;;;;;;;14.32;10.13;;;;;;;-0.20;57.58;99345.16;4974109;28;20094;-81
2022/11/20 07:43:12;;;;;;;15.38;10.05;;;;;;;-0.20;57.92;99342.56;4957068;28;20145;-82
2022/11/20 07:45:39;;;;;;;16.02;11.02;;;;;;;-0.18;57.87;99340.78;4956743;28;20054;-82
2022/11/20 07:48:06;;;;;;;18.23;11.77;;;;;;;-0.16;58.09;99343.34;4974036;28;20063;-82
2022/11/20 07:50:33;;;;;;;18.35;11.27;;;;;;;-0.16;58.02;99339.03;4974049;28;20092;-82
2022/11/20 07:53:06;;;;;;;17.70;11.73;;;;;;;-0.17;58.00;99337.34;4974091;28;20054;-82
2022/11/20 07:55:33;;;;;;;17.83;11.60;;;;;;;-0.16;58.27;99333.88;4975425;28;20583;-81
2022/11/20 07:57:59;;;;;;;19.95;11.65;;;;;;;-0.17;57.93;99329.59;4989223;28;20653;-80
2022/11/20 08:00:27;;;;;;;17.42;11.35;;;;;;;-0.16;57.79;99335.59;4956470;28;20059;-84
2022/11/20 08:02:53;;;;;;;16.88;10.98;;;;;;;-0.15;58.08;99332.16;4973126;28;20054;-87
2022/11/20 08:05:20;;;;;;;16.38;10.60;;;;;;;-0.15;57.97;99325.22;4872081;22;20102;-87
2022/11/20 08:07:47;;;;;;;16.35;10.98;;;;;;;-0.12;58.35;99318.28;5051526;28;20107;-87
2022/11/20 08:10:16;;;;;;;18.13;11.48;;;;;;;-0.09;58.43;99325.97;5039935;28;20060;-87
2022/11/20 08:15:33;;;;;;;18.00;10.20;;;;;;;-0.02;58.19;99328.44;5051322;28;20049;-87
2022/11/20 08:18:05;;;;;;;18.52;10.43;;;;;;;0.02;58.69;99325.75;5036593;28;20471;-88
2022/11/20 08:20:51;;;;;;;14.68;10.32;;;;;;;0.07;58.56;99331.72;5053805;28;20077;-88
2022/11/20 08:23:17;;;;;;;16.52;9.38;;;;;;;0.13;58.48;99336.75;5036318;28;20413;-88
2022/11/20 08:25:49;;;;;;;13.75;9.40;;;;;;;0.18;58.84;99336.66;5035095;28;20057;-87
2022/11/20 08:28:16;;;;;;;13.73;9.93;;;;;;;0.27;58.52;99336.47;5034633;28;20505;-87
2022/11/20 08:30:47;;;;;;;15.75;9.52;;;;;;;0.35;58.72;99339.75;5035333;28;20516;-87
2022/11/20 08:33:13;;;;;;;14.77;10.02;;;;;;;0.44;58.71;99343.03;5052449;28;20052;-87
2022/11/20 08:35:41;;;;;;;15.52;10.23;;;;;;;0.51;58.25;99339.38;5035967;28;20095;-87
2022/11/20 08:38:08;;;;;;;15.50;10.00;;;;;;;0.58;58.31;99335.78;5029423;28;20115;-86
2022/11/20 08:40:35;;;;;;;15.20;9.98;;;;;;;0.62;58.37;99326.19;5023635;28;20497;-85
2022/11/20 08:43:01;;;;;;;16.33;10.40;;;;;;;0.68;58.30;99333.84;5052210;28;20509;-86
2022/11/20 08:45:28;;;;;;;15.75;10.30;;;;;;;0.71;58.21;99333.75;5048288;28;20079;-85
2022/11/20 08:48:01;;;;;;;11.10;7.30;;;;;;;0.75;58.66;99337.97;5048528;28;20049;-85
2022/11/20 08:50:31;;;;;;;14.68;9.15;;;;;;;0.79;58.49;99346.53;5034056;28;20056;-86
2022/11/20 08:53:06;;;;;;;17.08;10.05;;;;;;;0.87;58.70;99357.59;5035695;28;20140;-85
2022/11/20 08:55:35;;;;;;;14.25;9.30;;;;;;;0.99;59.06;99347.78;5053879;28;20056;-86
2022/11/20 08:58:05;;;;;;;15.15;10.05;;;;;;;1.10;59.01;99358.75;5071550;28;20052;-85
2022/11/20 09:00:32;;;;;;;15.60;10.55;;;;;;;1.23;58.86;99350.69;5071677;28;20063;-86
2022/11/20 09:03:00;;;;;;;18.67;10.80;;;;;;;1.34;59.27;99346.06;5071761;28;20071;-86
2022/11/20 09:05:27;;;;;;;17.00;10.88;;;;;;;1.47;59.28;99345.75;5053550;28;20143;-85
2022/11/20 09:07:58;;;;;;;19.23;11.57;;;;;;;1.56;59.27;99350.69;5071638;28;20057;-86
2022/11/20 09:10:24;;;;;;;18.30;11.68;;;;;;;1.66;58.75;99344.38;5071396;28;20064;-85
2022/11/20 09:12:52;;;;;;;18.67;11.77;;;;;;;1.72;58.77;99345.09;5053815;28;20056;-86
2022/11/20 09:15:39;;;;;;;21.40;12.38;;;;;;;1.73;58.31;99344.22;5072078;28;20534;-85
2022/11/20 09:18:06;;;;;;;20.45;12.00;;;;;;;1.72;58.40;99348.53;5039412;28;20048;-86
2022/11/20 09:26:11;;;;;;;19.98;11.20;;;;;;;1.62;58.23;99336.72;5164894;22;20080;-90
2022/11/20 09:28:37;;;;;;;25.40;12.95;;;;;;;1.60;59.08;99344.53;5051695;28;20060;-90
2022/11/20 09:31:24;;;;;;;20.55;11.75;;;;;;;1.53;59.14;99335.22;5033696;28;20080;-90
2022/11/20 09:33:50;;;;;;;26.75;12.95;;;;;;;1.54;58.95;99336.94;5051303;28;20061;-90
2022/11/20 09:36:18;;;;;;;22.77;12.23;;;;;;;1.53;58.98;99335.22;5051774;28;20061;-90
2022/11/20 09:38:45;;;;;;;28.77;13.70;;;;;;;1.49;59.54;99329.25;5051465;28;20107;-90
2022/11/20 09:41:40;;;;;;;25.45;13.63;;;;;;;1.43;59.62;99317.28;5051477;28;20471;-90
2022/11/20 09:44:32;;;;;;;21.38;11.45;;;;;;;1.41;59.82;99316.50;5051313;28;20115;-90
2022/11/20 09:47:08;;;;;;;25.55;11.40;;;;;;;1.38;59.76;99326.13;5051156;28;20057;-90
2022/11/20 09:49:59;;;;;;;21.80;12.00;;;;;;;1.35;60.08;99321.00;5033315;28;20425;-89
2022/11/20 09:52:32;;;;;;;22.60;11.35;;;;;;;1.37;60.23;99324.38;5034613;28;20405;-90
2022/11/20 09:55:01;;;;;;;23.98;12.63;;;;;;;1.39;60.29;99318.25;5051194;28;20056;-90
2022/11/20 09:57:38;;;;;;;23.58;11.65;;;;;;;1.39;60.19;99309.66;5033072;28;20061;-90
2022/11/20 10:00:06;;;;;;;20.45;10.57;;;;;;;1.41;59.81;99308.72;5033397;28;20134;-90
2022/11/20 10:02:51;;;;;;;22.63;11.05;;;;;;;1.42;60.10;99305.22;5050678;28;20057;-90
2022/11/20 10:05:34;;;;;;;19.52;10.63;;;;;;;1.40;60.91;99306.16;5033010;28;20123;-90
2022/11/20 10:08:23;;;;;;;21.02;10.65;;;;;;;1.40;61.04;99294.06;5051192;28;20063;-90
2022/11/20 10:10:56;;;;;;;24.17;10.95;;;;;;;1.43;60.08;99287.94;5070841;28;20049;-90
2022/11/20 10:13:56;;;;;;;24.33;10.77;;;;;;;1.44;60.99;99294.81;5071009;28;20052;-90
2022/11/20 10:16:42;;;;;;;18.98;9.73;;;;;;;1.51;61.50;99296.34;5070522;28;20118;-90
2022/11/20 10:19:29;;;;;;;17.80;9.45;;;;;;;1.61;61.49;99296.09;5070733;28;20064;-90
2022/11/20 10:25:08;;;;;;;21.27;11.15;;;;;;;1.83;61.08;99291.16;5057399;23;20102;-87
2022/11/20 10:27:38;;;;;;;17.70;9.70;;;;;;;1.91;61.07;99290.94;5046166;28;20053;-87
2022/11/20 10:30:16;;;;;;;23.50;10.95;;;;;;;2.00;61.84;99287.22;5040931;28;20061;-87
2022/11/20 10:32:47;;;;;;;19.25;10.35;;;;;;;2.12;61.22;99294.66;5026327;28;20045;-88
2022/11/20 10:35:20;;;;;;;22.50;11.27;;;;;;;2.23;61.34;99294.31;5052396;28;20527;-87
2022/11/20 10:38:00;;;;;;;23.67;11.48;;;;;;;2.36;60.90;99297.41;5048938;28;20095;-87
2022/11/20 10:40:43;;;;;;;23.48;11.43;;;;;;;2.44;60.50;99289.38;5031292;28;20056;-87
2022/11/20 10:43:15;;;;;;;16.08;7.85;;;;;;;2.55;60.29;99283.84;5048656;28;20467;-87
2022/11/20 10:46:05;;;;;;;20.65;10.95;;;;;;;2.63;60.32;99274.06;5035767;28;20488;-87
2022/11/20 10:48:32;;;;;;;23.10;11.90;;;;;;;2.73;60.40;99272.84;5034701;28;20081;-87
2022/11/20 10:51:04;;;;;;;21.75;11.85;;;;;;;2.79;59.75;99269.22;5049363;28;20463;-87
2022/11/20 10:53:53;;;;;;;24.65;12.38;;;;;;;2.88;59.96;99269.81;5031221;28;20079;-85
2022/11/20 10:56:33;;;;;;;23.17;11.70;;;;;;;2.99;60.19;99273.75;5031313;28;20088;-87
2022/11/20 10:59:28;;;;;;;20.20;11.80;;;;;;;3.11;60.56;99275.06;5048914;28;20414;-85
2022/11/20 11:01:56;;;;;;;20.92;10.73;;;;;;;3.36;62.71;99266.44;5031514;28;20064;-85
2022/11/20 11:04:42;;;;;;;22.70;11.65;;;;;;;3.71;63.12;99266.09;5031891;28;20463;-85
2022/11/20 11:07:17;;;;;;;22.45;11.82;;;;;;;4.23;65.43;99277.19;5050007;28;20539;-85
2022/11/20 11:09:49;;;;;;;22.48;12.35;;;;;;;4.90;66.66;99271.97;5036168;28;20060;-85
2022/11/20 11:12:15;;;;;;;23.08;12.07;;;;;;;5.67;68.50;99259.97;5054052;28;20452;-86
2022/11/20 11:14:44;;;;;;;18.65;12.07;;;;;;;6.52;67.56;99259.63;5052689;28;20103;-86
2022/11/20 11:17:31;;;;;;;21.85;13.10;;;;;;;7.51;63.02;99253.00;5053722;28;20468;-85
2022/11/20 11:20:11;;;;;;;19.33;12.95;;;;;;;8.42;65.69;99256.84;5036217;28;20053;-86
2022/11/20 11:23:05;;;;;;;24.92;14.80;;;;;;;9.43;58.37;99243.19;5036144;28;20061;-86
2022/11/20 11:25:34;;;;;;;22.65;14.82;;;;;;;10.23;59.57;99241.78;5034102;28;20489;-86
2022/11/20 11:28:17;;;;;;;18.55;12.45;;;;;;;10.92;55.38;99234.78;5037130;28;20065;-86
2022/11/20 11:30:44;;;;;;;18.70;12.90;;;;;;;11.58;58.57;99232.06;5055035;28;20049;-86
2022/11/20 11:33:23;;;;;;;20.30;14.85;;;;;;;12.10;50.07;99236.41;5055010;28;20641;-86
2022/11/20 11:35:59;;;;;;;19.58;13.40;;;;;;;12.59;50.90;99225.84;5037033;28;20076;-86
2022/11/20 11:38:42;;;;;;;22.10;14.57;;;;;;;12.98;50.67;99228.28;5037164;28;20049;-86
2022/11/20 11:41:15;;;;;;;19.83;13.57;;;;;;;13.28;50.40;99227.72;5045587;28;20091;-85
2022/11/20 11:46:37;;;;;;;23.80;15.77;;;;;;;13.48;48.62;99211.31;5032991;28;20134;-87
2022/11/20 11:49:09;;;;;;;20.40;14.48;;;;;;;13.26;47.47;99220.88;5016064;28;20083;-85
2022/11/20 11:51:46;;;;;;;21.35;15.00;;;;;;;12.96;47.24;99214.31;5022494;28;20509;-85
2022/11/20 11:54:24;;;;;;;23.17;15.23;;;;;;;12.56;45.76;99203.16;5038186;28;20127;-85
2022/11/20 11:56:51;;;;;;;22.67;16.15;;;;;;;12.36;47.79;99199.34;5032941;28;20529;-85
2022/11/20 11:59:42;;;;;;;26.70;17.42;;;;;;;12.02;45.24;99200.00;5042542;28;20116;-85
2022/11/20 12:02:24;;;;;;;27.52;17.45;;;;;;;11.71;45.53;99207.47;5034947;28;20398;-85
2022/11/20 12:04:57;;;;;;;25.17;15.20;;;;;;;11.33;45.88;99201.28;5034958;28;20107;-85
2022/11/20 12:07:30;;;;;;;26.83;16.88;;;;;;;10.85;44.79;99201.91;5025488;28;20108;-84
2022/11/20 12:10:29;;;;;;;25.40;16.15;;;;;;;10.26;44.32;99204.78;5029230;28;20059;-84
2022/11/20 12:13:01;;;;;;;;;;;;;;;9.78;45.50;99202.53;5024522;28;20053;-85
2022/11/20 12:15:34;;;;;;;23.48;14.77;;;;;;;9.20;46.20;99189.44;5022784;28;19925;-84
2022/11/20 12:18:01;;;;;;;27.63;16.45;;;;;;;8.70;47.47;99195.81;5024674;28;20057;-85
2022/11/20 12:20:41;;;;;;;29.63;17.20;;;;;;;8.14;47.37;99180.59;5039680;28;20471;-85
2022/11/20 12:23:20;;;;;;;31.38;18.13;;;;;;;7.61;48.07;99180.84;5024907;28;20107;-85
2022/11/20 12:25:53;;;;;;;29.45;17.77;;;;;;;7.18;48.90;99173.50;5041637;28;20494;-85
2022/11/20 12:28:26;;;;;;;31.00;18.45;;;;;;;6.77;49.65;99169.50;5040383;28;20060;-84
2022/11/20 12:31:26;;;;;;;33.33;19.65;;;;;;;6.22;50.21;99174.75;5025327;28;20089;-84
2022/11/20 12:34:02;;;;;;;32.55;18.33;;;;;;;5.86;50.80;99176.41;4984557;28;20391;-84
2022/11/20 12:36:43;;;;;;;32.30;19.13;;;;;;;5.45;52.17;99163.47;5050596;28;20420;-84
2022/11/20 12:39:19;;;;;;;33.05;18.65;;;;;;;5.24;52.57;99165.31;5052431;28;20088;-84
2022/11/20 12:45:12;;;;;;;36.33;19.15;;;;;;;4.86;54.62;99160.84;5052117;28;20057;-84
2022/11/20 12:48:00;;;;;;;32.83;18.98;;;;;;;4.80;55.14;99162.81;5052177;28;20057;-84
2022/11/20 12:50:32;;;;;;;36.78;19.00;;;;;;;4.79;55.09;99155.88;5050999;28;20079;-85
2022/11/20 12:53:30;;;;;;;33.08;18.67;;;;;;;4.80;55.74;99149.78;5041549;28;20050;-84
2022/11/20 12:56:35;;;;;;;32.42;18.42;;;;;;;4.80;56.15;99149.78;5042297;28;20111;-84
2022/11/20 12:59:18;;;;;;;33.88;18.60;;;;;;;4.80;55.47;99149.78;5035789;28;20124;-82
2022/11/20 13:02:14;;;;;;;33.90;18.75;;;;;;;4.74;55.47;99146.59;5027638;28;20053;-83
2022/11/20 13:05:05;;;;;;;32.83;17.83;;;;;;;4.66;55.53;99144.28;5025547;28;20053;-83
2022/11/20 13:07:34;;;;;;;36.15;19.08;;;;;;;4.60;55.28;99142.78;5041061;28;20045;-83
2022/11/20 13:10:02;;;;;;;31.92;18.23;;;;;;;4.54;55.34;99143.06;5040209;28;20110;-83
2022/11/20 13:12:42;;;;;;;33.65;17.50;;;;;;;4.46;56.32;99142.53;5038997;28;20049;-83
2022/11/20 13:15:53;;;;;;;30.23;16.83;;;;;;;4.42;57.04;99147.03;5013565;28;20441;-83
2022/11/20 13:18:21;;;;;;;35.03;18.52;;;;;;;4.47;56.46;99145.06;5034049;28;20095;-83
2022/11/20 13:20:49;;;;;;;30.77;17.85;;;;;;;4.49;56.64;99140.63;5046879;28;20053;-83
2022/11/20 13:24:12;;;;;;;32.42;17.67;;;;;;;4.48;57.44;99138.94;5045953;28;20102;-83
2022/11/20 13:27:08;;;;;;;30.45;16.25;;;;;;;4.53;57.46;99126.56;5040433;28;20059;-83
2022/11/20 13:29:37;;;;;;;30.30;17.45;;;;;;;4.57;56.75;99120.31;5033694;28;20509;-84
2022/11/20 13:32:13;;;;;;;30.75;18.40;;;;;;;4.62;57.27;99116.66;5050930;28;20056;-83
2022/11/20 13:34:55;;;;;;;28.13;17.25;;;;;;;4.67;57.83;99104.25;5033418;28;20489;-83
2022/11/20 13:37:36;;;;;;;28.13;17.02;;;;;;;4.80;58.09;99099.38;5030414;28;20061;-83
2022/11/20 13:40:09;;;;;;;29.00;16.98;;;;;;;5.00;58.59;99082.00;5033278;28;20080;-83
2022/11/20 13:42:43;;;;;;;;;;;;;;;5.22;58.39;99080.13;5033980;28;20060;-83
2022/11/20 13:45:31;;;;;;;23.27;13.65;;;;;;;5.56;58.53;99080.31;5033266;28;19928;-83
2022/11/20 13:48:02;;;;;;;24.42;15.35;;;;;;;5.87;58.35;99080.63;5033360;28;20412;-83
2022/11/20 13:50:46;;;;;;;24.58;15.80;;;;;;;6.08;57.28;99085.72;5033212;28;20115;-83
2022/11/20 13:53:22;;;;;;;23.88;15.55;;;;;;;6.23;56.42;99069.28;5044292;28;20220;-83
2022/11/20 13:55:59;;;;;;;22.08;14.60;;;;;;;6.32;56.26;99070.59;5050573;28;20052;-83
2022/11/20 13:59:06;;;;;;;21.58;14.82;;;;;;;6.36;55.90;99061.66;5033116;28;20464;-83
2022/11/20 14:01:43;;;;;;;22.15;13.70;;;;;;;6.43;55.87;99058.75;5034120;28;20444;-83
2022/11/20 14:04:16;;;;;;;21.35;14.38;;;;;;;6.42;55.89;99044.00;5050748;28;20053;-83
2022/11/20 14:06:46;;;;;;;20.83;14.40;;;;;;;6.43;56.01;99041.28;5046445;23;20057;-80
2022/11/20 14:09:32;;;;;;;22.80;15.32;;;;;;;6.44;56.00;99039.53;5048897;28;20110;-80
2022/11/20 14:11:58;;;;;;;24.98;15.38;;;;;;;6.53;56.16;99028.59;5041781;28;20080;-80
2022/11/20 14:14:30;;;;;;;22.85;15.20;;;;;;;6.54;55.74;99034.66;5031601;28;20088;-80
2022/11/20 14:17:06;;;;;;;23.75;15.40;;;;;;;6.53;55.62;99039.03;5048979;28;20083;-79
2022/11/20 14:19:33;;;;;;;21.55;15.30;;;;;;;6.55;55.55;99024.13;5049220;28;20053;-79